sensor_id;sensor_type;location;lat;lon;timestamp;pressure;altitude;pressure_sealevel;temperature;humidity
57232;BME280;43488;46.934;8.276;2023-02-22T00:01:55;96408.81;;;6.34;67.94
57232;BME280;43488;46.934;8.276;2023-02-22T00:04:40;96411.25;;;6.20;68.46
57232;BME280;43488;46.934;8.276;2023-02-22T00:07:07;96409.00;;;6.17;68.38
57232;BME280;43488;46.934;8.276;2023-02-22T00:09:36;96410.78;;;6.32;68.01
57232;BME280;43488;46.934;8.276;2023-02-22T00:12:05;96409.63;;;6.34;67.63
57232;BME280;43488;46.934;8.276;2023-02-22T00:14:32;96395.91;;;6.32;67.33
57232;BME280;43488;46.934;8.276;2023-02-22T00:17:00;96410.00;;;6.31;68.02
57232;BME280;43488;46.934;8.276;2023-02-22T00:19:27;96402.00;;;6.39;67.28
57232;BME280;43488;46.934;8.276;2023-02-22T00:21:57;96405.19;;;6.35;67.68
57232;BME280;43488;46.934;8.276;2023-02-22T00:24:25;96398.34;;;6.34;67.96
57232;BME280;43488;46.934;8.276;2023-02-22T00:26:54;96402.69;;;6.26;68.25
57232;BME280;43488;46.934;8.276;2023-02-22T00:29:22;96390.69;;;6.32;68.37
57232;BME280;43488;46.934;8.276;2023-02-22T00:31:50;96400.63;;;6.22;68.80
57232;BME280;43488;46.934;8.276;2023-02-22T00:34:17;96398.25;;;6.27;69.35
57232;BME280;43488;46.934;8.276;2023-02-22T00:36:46;96392.31;;;6.18;69.94
57232;BME280;43488;46.934;8.276;2023-02-22T00:39:14;96394.31;;;6.16;70.06
57232;BME280;43488;46.934;8.276;2023-02-22T00:41:42;96403.16;;;6.15;70.27
57232;BME280;43488;46.934;8.276;2023-02-22T00:44:10;96395.94;;;6.17;70.31
57232;BME280;43488;46.934;8.276;2023-02-22T00:46:37;96393.31;;;6.17;71.13
57232;BME280;43488;46.934;8.276;2023-02-22T00:49:05;96401.44;;;6.22;71.25
57232;BME280;43488;46.934;8.276;2023-02-22T00:51:33;96396.13;;;6.16;72.07
57232;BME280;43488;46.934;8.276;2023-02-22T00:54:00;96390.69;;;6.17;72.39
57232;BME280;43488;46.934;8.276;2023-02-22T00:56:28;96396.94;;;6.16;72.20
57232;BME280;43488;46.934;8.276;2023-02-22T00:58:55;96394.78;;;6.05;71.38
57232;BME280;43488;46.934;8.276;2023-02-22T01:01:22;96394.06;;;5.96;71.13
57232;BME280;43488;46.934;8.276;2023-02-22T01:03:50;96387.38;;;5.94;71.06
57232;BME280;43488;46.934;8.276;2023-02-22T01:06:18;96381.34;;;5.93;70.26
57232;BME280;43488;46.934;8.276;2023-02-22T01:08:46;96383.03;;;5.86;71.27
57232;BME280;43488;46.934;8.276;2023-02-22T01:11:17;96391.59;;;5.80;71.96
57232;BME280;43488;46.934;8.276;2023-02-22T01:13:44;96392.03;;;5.84;72.52
57232;BME280;43488;46.934;8.276;2023-02-22T01:16:11;96386.81;;;5.84;72.69
57232;BME280;43488;46.934;8.276;2023-02-22T01:18:39;96387.06;;;5.74;72.58
57232;BME280;43488;46.934;8.276;2023-02-22T01:21:06;96387.38;;;5.79;71.47
57232;BME280;43488;46.934;8.276;2023-02-22T01:23:34;96380.72;;;5.77;70.74
57232;BME280;43488;46.934;8.276;2023-02-22T01:26:04;96382.13;;;5.79;70.32
57232;BME280;43488;46.934;8.276;2023-02-22T01:28:32;96384.56;;;5.81;70.21
57232;BME280;43488;46.934;8.276;2023-02-22T01:31:00;96383.31;;;5.77;70.00
57232;BME280;43488;46.934;8.276;2023-02-22T01:33:27;96386.75;;;5.77;70.10
57232;BME280;43488;46.934;8.276;2023-02-22T01:35:54;96385.94;;;5.77;69.43
57232;BME280;43488;46.934;8.276;2023-02-22T01:38:22;96380.41;;;5.71;70.21
57232;BME280;43488;46.934;8.276;2023-02-22T01:40:50;96391.66;;;5.57;70.96
57232;BME280;43488;46.934;8.276;2023-02-22T01:43:28;96381.84;;;5.45;72.15
57232;BME280;43488;46.934;8.276;2023-02-22T01:46:03;96379.03;;;5.46;72.24
57232;BME280;43488;46.934;8.276;2023-02-22T01:49:01;96386.00;;;5.54;72.05
57232;BME280;43488;46.934;8.276;2023-02-22T01:51:37;96383.28;;;5.47;72.04
57232;BME280;43488;46.934;8.276;2023-02-22T01:54:14;96387.88;;;5.45;72.79
57232;BME280;43488;46.934;8.276;2023-02-22T01:59:29;96380.72;;;5.39;72.92
57232;BME280;43488;46.934;8.276;2023-02-22T02:01:59;96378.03;;;5.32;73.24
57232;BME280;43488;46.934;8.276;2023-02-22T02:04:27;96373.16;;;5.14;74.19
57232;BME280;43488;46.934;8.276;2023-02-22T02:06:59;96373.91;;;5.00;74.75
57232;BME280;43488;46.934;8.276;2023-02-22T02:09:58;96369.66;;;4.99;74.20
57232;BME280;43488;46.934;8.276;2023-02-22T02:12:34;96367.19;;;5.06;73.77
57232;BME280;43488;46.934;8.276;2023-02-22T02:15:26;96369.25;;;5.10;73.49
57232;BME280;43488;46.934;8.276;2023-02-22T02:18:05;96361.72;;;5.16;73.79
57232;BME280;43488;46.934;8.276;2023-02-22T02:23:50;96361.28;;;5.27;72.92
57232;BME280;43488;46.934;8.276;2023-02-22T02:33:00;96355.88;;;5.28;73.46
57232;BME280;43488;46.934;8.276;2023-02-22T02:41:31;96359.16;;;5.30;71.93
57232;BME280;43488;46.934;8.276;2023-02-22T02:44:32;96356.06;;;5.27;71.35
57232;BME280;43488;46.934;8.276;2023-02-22T02:47:08;96353.34;;;5.20;71.89
57232;BME280;43488;46.934;8.276;2023-02-22T02:49:55;96355.44;;;5.25;71.77
57232;BME280;43488;46.934;8.276;2023-02-22T02:52:25;96349.09;;;5.19;71.79
57232;BME280;43488;46.934;8.276;2023-02-22T02:54:53;96349.09;;;5.19;71.49
57232;BME280;43488;46.934;8.276;2023-02-22T02:57:21;96345.69;;;5.19;71.74
57232;BME280;43488;46.934;8.276;2023-02-22T02:59:48;96345.69;;;5.19;71.84
57232;BME280;43488;46.934;8.276;2023-02-22T03:02:47;96345.50;;;5.20;72.19
57232;BME280;43488;46.934;8.276;2023-02-22T03:07:56;96333.44;;;5.04;73.46
57232;BME280;43488;46.934;8.276;2023-02-22T03:16:43;96333.72;;;5.09;73.68
57232;BME280;43488;46.934;8.276;2023-02-22T03:19:58;96332.09;;;5.08;73.87
57232;BME280;43488;46.934;8.276;2023-02-22T03:22:29;96327.22;;;5.05;74.36
57232;BME280;43488;46.934;8.276;2023-02-22T03:25:13;96331.09;;;5.09;74.14
57232;BME280;43488;46.934;8.276;2023-02-22T03:27:51;96329.66;;;5.07;74.62
57232;BME280;43488;46.934;8.276;2023-02-22T03:33:08;96322.91;;;4.98;74.65
57232;BME280;43488;46.934;8.276;2023-02-22T03:35:48;96332.66;;;4.81;75.25
57232;BME280;43488;46.934;8.276;2023-02-22T03:38:19;96323.50;;;4.85;74.71
57232;BME280;43488;46.934;8.276;2023-02-22T03:40:50;96319.38;;;4.91;74.48
57232;BME280;43488;46.934;8.276;2023-02-22T03:43:28;96323.78;;;4.90;74.51
57232;BME280;43488;46.934;8.276;2023-02-22T03:45:57;96315.50;;;4.87;73.94
57232;BME280;43488;46.934;8.276;2023-02-22T03:48:31;96317.13;;;4.88;74.16
57232;BME280;43488;46.934;8.276;2023-02-22T03:51:03;96317.94;;;4.88;74.42
57232;BME280;43488;46.934;8.276;2023-02-22T03:53:32;96317.81;;;4.81;74.76
57232;BME280;43488;46.934;8.276;2023-02-22T03:56:02;96318.16;;;4.78;73.97
57232;BME280;43488;46.934;8.276;2023-02-22T03:58:33;96307.75;;;4.78;74.21
57232;BME280;43488;46.934;8.276;2023-02-22T04:01:02;96306.44;;;4.74;74.02
57232;BME280;43488;46.934;8.276;2023-02-22T04:03:29;96308.91;;;4.76;74.41
57232;BME280;43488;46.934;8.276;2023-02-22T04:05:57;96308.53;;;4.79;74.28
57232;BME280;43488;46.934;8.276;2023-02-22T04:08:24;96297.63;;;4.75;74.28
57232;BME280;43488;46.934;8.276;2023-02-22T04:10:52;96301.53;;;4.79;74.60
57232;BME280;43488;46.934;8.276;2023-02-22T04:13:19;96303.69;;;4.76;74.97
57232;BME280;43488;46.934;8.276;2023-02-22T04:15:48;96305.63;;;4.74;75.03
57232;BME280;43488;46.934;8.276;2023-02-22T04:18:15;96297.00;;;4.73;75.02
57232;BME280;43488;46.934;8.276;2023-02-22T04:20:43;96300.41;;;4.74;74.87
57232;BME280;43488;46.934;8.276;2023-02-22T04:23:11;96302.84;;;4.75;75.02
57232;BME280;43488;46.934;8.276;2023-02-22T04:25:38;96304.13;;;4.79;74.88
57232;BME280;43488;46.934;8.276;2023-02-22T04:28:05;96298.91;;;4.79;74.56
57232;BME280;43488;46.934;8.276;2023-02-22T04:30:33;96299.78;;;4.72;74.58
57232;BME280;43488;46.934;8.276;2023-02-22T04:33:01;96294.53;;;4.57;75.85
57232;BME280;43488;46.934;8.276;2023-02-22T04:35:28;96305.25;;;4.62;76.60
57232;BME280;43488;46.934;8.276;2023-02-22T04:37:57;96301.22;;;4.60;76.68
57232;BME280;43488;46.934;8.276;2023-02-22T04:40:24;96301.03;;;4.61;76.24
57232;BME280;43488;46.934;8.276;2023-02-22T04:42:52;96299.91;;;4.55;74.79
57232;BME280;43488;46.934;8.276;2023-02-22T04:45:19;96304.50;;;4.53;74.86
57232;BME280;43488;46.934;8.276;2023-02-22T04:47:47;96317.03;;;4.58;75.02
57232;BME280;43488;46.934;8.276;2023-02-22T04:52:42;96308.59;;;4.48;74.70
57232;BME280;43488;46.934;8.276;2023-02-22T04:55:10;96314.53;;;4.42;75.58
57232;BME280;43488;46.934;8.276;2023-02-22T04:57:38;96308.31;;;4.43;75.10
57232;BME280;43488;46.934;8.276;2023-02-22T05:00:06;96306.94;;;4.32;75.75
57232;BME280;43488;46.934;8.276;2023-02-22T05:02:38;96307.06;;;4.08;75.16
57232;BME280;43488;46.934;8.276;2023-02-22T05:05:06;96306.41;;;4.14;75.31
57232;BME280;43488;46.934;8.276;2023-02-22T05:07:34;96300.88;;;4.09;75.70
57232;BME280;43488;46.934;8.276;2023-02-22T05:10:01;96305.28;;;4.08;75.48
57232;BME280;43488;46.934;8.276;2023-02-22T05:12:29;96301.88;;;4.08;75.47
57232;BME280;43488;46.934;8.276;2023-02-22T05:14:59;96307.84;;;4.16;76.32
57232;BME280;43488;46.934;8.276;2023-02-22T05:17:28;96309.94;;;4.21;75.85
57232;BME280;43488;46.934;8.276;2023-02-22T05:19:55;96304.56;;;4.22;75.15
57232;BME280;43488;46.934;8.276;2023-02-22T05:22:22;96306.34;;;4.22;74.41
57232;BME280;43488;46.934;8.276;2023-02-22T05:24:51;96307.50;;;4.19;74.21
57232;BME280;43488;46.934;8.276;2023-02-22T05:27:19;96313.50;;;4.20;73.14
57232;BME280;43488;46.934;8.276;2023-02-22T05:29:47;96310.28;;;4.18;73.06
57232;BME280;43488;46.934;8.276;2023-02-22T05:32:15;96315.03;;;4.14;72.66
57232;BME280;43488;46.934;8.276;2023-02-22T05:34:43;96313.50;;;4.20;72.65
57232;BME280;43488;46.934;8.276;2023-02-22T05:37:11;96315.63;;;4.24;72.82
57232;BME280;43488;46.934;8.276;2023-02-22T05:39:38;96307.16;;;4.22;73.33
57232;BME280;43488;46.934;8.276;2023-02-22T05:42:06;96310.56;;;4.23;73.25
57232;BME280;43488;46.934;8.276;2023-02-22T05:44:33;96308.47;;;4.18;73.79
57232;BME280;43488;46.934;8.276;2023-02-22T05:47:00;96313.59;;;4.12;73.78
57232;BME280;43488;46.934;8.276;2023-02-22T05:49:27;96312.16;;;4.01;75.25
57232;BME280;43488;46.934;8.276;2023-02-22T05:51:55;96307.88;;;4.08;76.16
57232;BME280;43488;46.934;8.276;2023-02-22T05:54:25;96310.63;;;4.15;76.30
57232;BME280;43488;46.934;8.276;2023-02-22T05:56:52;96311.72;;;4.20;76.63
57232;BME280;43488;46.934;8.276;2023-02-22T05:59:19;96310.84;;;4.28;76.24
57232;BME280;43488;46.934;8.276;2023-02-22T06:01:47;96301.41;;;4.27;76.40
57232;BME280;43488;46.934;8.276;2023-02-22T06:04:14;96306.63;;;4.27;75.38
57232;BME280;43488;46.934;8.276;2023-02-22T06:06:41;96302.75;;;4.23;75.19
57232;BME280;43488;46.934;8.276;2023-02-22T06:09:08;96300.47;;;4.20;75.03
57232;BME280;43488;46.934;8.276;2023-02-22T06:11:35;96311.88;;;4.19;75.14
57232;BME280;43488;46.934;8.276;2023-02-22T06:14:03;96311.06;;;4.18;75.71
57232;BME280;43488;46.934;8.276;2023-02-22T06:16:30;96307.16;;;4.22;76.92
57232;BME280;43488;46.934;8.276;2023-02-22T06:18:58;96311.56;;;4.22;77.43
57232;BME280;43488;46.934;8.276;2023-02-22T06:21:26;96313.63;;;4.26;77.24
57232;BME280;43488;46.934;8.276;2023-02-22T06:23:54;96308.25;;;4.28;76.98
57232;BME280;43488;46.934;8.276;2023-02-22T06:26:21;96318.19;;;4.33;76.95
57232;BME280;43488;46.934;8.276;2023-02-22T06:28:49;96310.81;;;4.36;76.21
57232;BME280;43488;46.934;8.276;2023-02-22T06:31:16;96311.63;;;4.37;76.23
57232;BME280;43488;46.934;8.276;2023-02-22T06:33:43;96319.16;;;4.32;76.16
57232;BME280;43488;46.934;8.276;2023-02-22T06:36:10;96315.03;;;4.37;75.68
57232;BME280;43488;46.934;8.276;2023-02-22T06:38:38;96320.59;;;4.34;75.91
57232;BME280;43488;46.934;8.276;2023-02-22T06:41:05;96315.38;;;4.34;75.66
57232;BME280;43488;46.934;8.276;2023-02-22T06:43:34;96324.41;;;4.23;76.15
57232;BME280;43488;46.934;8.276;2023-02-22T06:46:01;96327.19;;;4.22;76.35
57232;BME280;43488;46.934;8.276;2023-02-22T06:48:28;96318.84;;;4.26;76.52
57232;BME280;43488;46.934;8.276;2023-02-22T06:50:56;96324.19;;;4.33;76.80
57232;BME280;43488;46.934;8.276;2023-02-22T06:53:26;96323.50;;;4.39;76.51
57232;BME280;43488;46.934;8.276;2023-02-22T06:55:54;96323.50;;;4.39;75.97
57232;BME280;43488;46.934;8.276;2023-02-22T06:58:21;96327.31;;;4.28;76.12
57232;BME280;43488;46.934;8.276;2023-02-22T07:00:49;96329.41;;;4.33;76.96
57232;BME280;43488;46.934;8.276;2023-02-22T07:03:17;96332.94;;;4.40;77.18
57232;BME280;43488;46.934;8.276;2023-02-22T07:05:44;96325.69;;;4.27;77.35
57232;BME280;43488;46.934;8.276;2023-02-22T07:08:12;96327.84;;;4.24;76.51
57232;BME280;43488;46.934;8.276;2023-02-22T07:10:39;96327.88;;;4.16;76.34
57232;BME280;43488;46.934;8.276;2023-02-22T07:13:07;96331.44;;;4.23;76.52
57232;BME280;43488;46.934;8.276;2023-02-22T07:15:35;96324.56;;;4.30;76.62
57232;BME280;43488;46.934;8.276;2023-02-22T07:18:03;96326.28;;;4.38;76.01
57232;BME280;43488;46.934;8.276;2023-02-22T07:20:31;96333.41;;;4.44;75.52
57232;BME280;43488;46.934;8.276;2023-02-22T07:22:59;96334.22;;;4.44;75.35
57232;BME280;43488;46.934;8.276;2023-02-22T07:25:27;96343.94;;;4.27;75.65
57232;BME280;43488;46.934;8.276;2023-02-22T07:27:54;96329.28;;;4.26;75.66
57232;BME280;43488;46.934;8.276;2023-02-22T07:30:31;96336.91;;;4.28;75.94
57232;BME280;43488;46.934;8.276;2023-02-22T07:33:03;96328.38;;;4.42;76.36
57232;BME280;43488;46.934;8.276;2023-02-22T07:35:41;96326.66;;;4.57;76.39
57232;BME280;43488;46.934;8.276;2023-02-22T07:38:09;96325.75;;;4.65;76.70
57232;BME280;43488;46.934;8.276;2023-02-22T07:40:37;96322.00;;;4.68;75.74
57232;BME280;43488;46.934;8.276;2023-02-22T07:43:23;96326.22;;;4.69;78.52
57232;BME280;43488;46.934;8.276;2023-02-22T07:45:54;96322.34;;;4.65;77.46
57232;BME280;43488;46.934;8.276;2023-02-22T07:48:25;96317.78;;;4.67;78.83
57232;BME280;43488;46.934;8.276;2023-02-22T07:50:54;96315.38;;;4.80;79.94
57232;BME280;43488;46.934;8.276;2023-02-22T07:53:28;96320.16;;;4.91;78.69
57232;BME280;43488;46.934;8.276;2023-02-22T07:56:01;96321.28;;;4.97;78.04
57232;BME280;43488;46.934;8.276;2023-02-22T07:58:30;96328.31;;;5.11;78.46
57232;BME280;43488;46.934;8.276;2023-02-22T08:00:58;96322.38;;;5.17;79.24
57232;BME280;43488;46.934;8.276;2023-02-22T08:03:26;96327.63;;;5.32;79.96
57232;BME280;43488;46.934;8.276;2023-02-22T08:05:56;96315.13;;;5.42;79.95
57232;BME280;43488;46.934;8.276;2023-02-22T08:08:24;96307.41;;;5.49;79.80
57232;BME280;43488;46.934;8.276;2023-02-22T08:10:51;96314.97;;;5.58;79.13
57232;BME280;43488;46.934;8.276;2023-02-22T08:13:20;96308.56;;;5.61;78.53
57232;BME280;43488;46.934;8.276;2023-02-22T08:15:53;96310.69;;;5.72;78.21
57232;BME280;43488;46.934;8.276;2023-02-22T08:18:22;96309.09;;;5.86;77.86
57232;BME280;43488;46.934;8.276;2023-02-22T08:20:51;96308.97;;;5.94;77.62
57232;BME280;43488;46.934;8.276;2023-02-22T08:23:22;96303.94;;;6.07;77.38
57232;BME280;43488;46.934;8.276;2023-02-22T08:25:51;96299.41;;;6.16;76.30
57232;BME280;43488;46.934;8.276;2023-02-22T08:28:21;96300.19;;;6.31;76.80
57232;BME280;43488;46.934;8.276;2023-02-22T08:30:51;96304.31;;;6.40;75.13
57232;BME280;43488;46.934;8.276;2023-02-22T08:33:18;96307.22;;;6.52;74.05
57232;BME280;43488;46.934;8.276;2023-02-22T08:35:47;96306.91;;;6.62;74.54
57232;BME280;43488;46.934;8.276;2023-02-22T08:38:26;96301.50;;;6.63;73.21
57232;BME280;43488;46.934;8.276;2023-02-22T08:40:53;96307.69;;;6.83;72.98
57232;BME280;43488;46.934;8.276;2023-02-22T08:43:21;96307.97;;;6.89;72.54
57232;BME280;43488;46.934;8.276;2023-02-22T08:45:49;96308.06;;;7.02;73.48
57232;BME280;43488;46.934;8.276;2023-02-22T08:48:18;96307.78;;;7.18;71.12
57232;BME280;43488;46.934;8.276;2023-02-22T08:50:46;96303.44;;;7.32;72.09
57232;BME280;43488;46.934;8.276;2023-02-22T08:53:15;96301.88;;;7.37;70.53
57232;BME280;43488;46.934;8.276;2023-02-22T08:55:43;96297.38;;;7.59;70.08
57232;BME280;43488;46.934;8.276;2023-02-22T08:58:10;96294.44;;;7.82;68.82
57232;BME280;43488;46.934;8.276;2023-02-22T09:00:39;96290.09;;;7.96;68.46
57232;BME280;43488;46.934;8.276;2023-02-22T09:03:10;96291.75;;;8.17;67.61
57232;BME280;43488;46.934;8.276;2023-02-22T09:05:40;96297.50;;;8.40;65.58
57232;BME280;43488;46.934;8.276;2023-02-22T09:08:08;96284.41;;;8.67;64.47
57232;BME280;43488;46.934;8.276;2023-02-22T09:10:35;96284.66;;;8.92;64.01
57232;BME280;43488;46.934;8.276;2023-02-22T09:13:04;96289.69;;;8.93;60.43
57232;BME280;43488;46.934;8.276;2023-02-22T09:15:33;96293.13;;;9.20;59.84
57232;BME280;43488;46.934;8.276;2023-02-22T09:18:09;96288.63;;;9.47;58.78
57232;BME280;43488;46.934;8.276;2023-02-22T09:20:36;96294.66;;;9.67;58.21
57232;BME280;43488;46.934;8.276;2023-02-22T09:23:05;96282.44;;;9.86;57.46
57232;BME280;43488;46.934;8.276;2023-02-22T09:25:36;96290.88;;;10.08;56.72
57232;BME280;43488;46.934;8.276;2023-02-22T09:28:07;96292.03;;;10.19;56.13
57232;BME280;43488;46.934;8.276;2023-02-22T09:30:36;96290.44;;;10.24;54.48
57232;BME280;43488;46.934;8.276;2023-02-22T09:33:11;96281.63;;;10.44;54.76
57232;BME280;43488;46.934;8.276;2023-02-22T09:35:41;96283.38;;;10.50;51.78
57232;BME280;43488;46.934;8.276;2023-02-22T09:38:09;96288.66;;;10.50;53.03
57232;BME280;43488;46.934;8.276;2023-02-22T09:40:42;96290.19;;;10.64;53.18
57232;BME280;43488;46.934;8.276;2023-02-22T09:43:35;96289.06;;;10.78;54.25
57232;BME280;43488;46.934;8.276;2023-02-22T09:48:33;96278.59;;;10.72;51.76
57232;BME280;43488;46.934;8.276;2023-02-22T09:51:10;96278.69;;;10.90;52.07
57232;BME280;43488;46.934;8.276;2023-02-22T09:53:46;96282.97;;;11.09;52.17
57232;BME280;43488;46.934;8.276;2023-02-22T09:56:19;96279.63;;;11.21;49.71
57232;BME280;43488;46.934;8.276;2023-02-22T09:58:55;96276.38;;;11.00;50.59
57232;BME280;43488;46.934;8.276;2023-02-22T10:04:35;96280.22;;;11.23;49.72
57232;BME280;43488;46.934;8.276;2023-02-22T10:07:16;96272.69;;;11.26;50.72
57232;BME280;43488;46.934;8.276;2023-02-22T10:09:48;96273.88;;;11.49;52.81
57232;BME280;43488;46.934;8.276;2023-02-22T10:12:24;96267.03;;;11.66;51.99
57232;BME280;43488;46.934;8.276;2023-02-22T10:26:33;96256.63;;;12.38;49.90
57232;BME280;43488;46.934;8.276;2023-02-22T10:29:17;96259.69;;;12.65;48.48
57232;BME280;43488;46.934;8.276;2023-02-22T10:32:00;96259.94;;;12.75;48.18
57232;BME280;43488;46.934;8.276;2023-02-22T10:34:37;96256.09;;;13.01;47.94
57232;BME280;43488;46.934;8.276;2023-02-22T10:37:29;96266.13;;;13.22;47.94
57232;BME280;43488;46.934;8.276;2023-02-22T10:40:12;96259.91;;;13.40;47.17
57232;BME280;43488;46.934;8.276;2023-02-22T10:42:40;96254.84;;;13.50;46.75
57232;BME280;43488;46.934;8.276;2023-02-22T10:45:26;96251.50;;;13.66;47.45
57232;BME280;43488;46.934;8.276;2023-02-22T10:47:55;96260.66;;;13.87;47.89
57232;BME280;43488;46.934;8.276;2023-02-22T10:50:28;96251.25;;;14.20;46.55
57232;BME280;43488;46.934;8.276;2023-02-22T10:52:56;96249.22;;;14.39;45.84
57232;BME280;43488;46.934;8.276;2023-02-22T10:55:23;96248.06;;;14.46;47.27
57232;BME280;43488;46.934;8.276;2023-02-22T10:58:03;96241.75;;;14.64;48.81
57232;BME280;43488;46.934;8.276;2023-02-22T11:00:36;96241.31;;;15.01;48.68
57232;BME280;43488;46.934;8.276;2023-02-22T11:05:44;96232.22;;;15.52;46.35
57232;BME280;43488;46.934;8.276;2023-02-22T11:10:50;96218.75;;;15.98;44.92
57232;BME280;43488;46.934;8.276;2023-02-22T11:13:33;96220.59;;;16.19;44.20
57232;BME280;43488;46.934;8.276;2023-02-22T11:21:35;96211.44;;;16.86;41.91
57232;BME280;43488;46.934;8.276;2023-02-22T11:24:09;96204.38;;;17.01;41.64
57232;BME280;43488;46.934;8.276;2023-02-22T11:26:44;96206.13;;;17.28;41.37
57232;BME280;43488;46.934;8.276;2023-02-22T11:29:31;96204.84;;;17.30;39.66
57232;BME280;43488;46.934;8.276;2023-02-22T11:32:21;96200.25;;;17.68;38.62
57232;BME280;43488;46.934;8.276;2023-02-22T11:34:51;96195.78;;;17.79;39.18
57232;BME280;43488;46.934;8.276;2023-02-22T11:37:37;96193.59;;;17.66;37.90
57232;BME280;43488;46.934;8.276;2023-02-22T11:40:16;96191.84;;;17.97;36.67
57232;BME280;43488;46.934;8.276;2023-02-22T11:42:48;96181.00;;;18.18;36.26
57232;BME280;43488;46.934;8.276;2023-02-22T11:45:21;96181.56;;;18.36;36.52
57232;BME280;43488;46.934;8.276;2023-02-22T11:47:59;96180.13;;;17.98;37.64
57232;BME280;43488;46.934;8.276;2023-02-22T11:53:51;96186.31;;;18.13;38.03
57232;BME280;43488;46.934;8.276;2023-02-22T11:56:33;96183.88;;;17.97;38.25
57232;BME280;43488;46.934;8.276;2023-02-22T11:59:21;96181.94;;;17.77;39.69
57232;BME280;43488;46.934;8.276;2023-02-22T12:02:04;96166.94;;;18.48;38.35
57232;BME280;43488;46.934;8.276;2023-02-22T12:08:05;96169.38;;;18.86;37.40
57232;BME280;43488;46.934;8.276;2023-02-22T12:11:11;96164.03;;;18.75;39.06
57232;BME280;43488;46.934;8.276;2023-02-22T12:14:20;96161.91;;;18.67;38.77
57232;BME280;43488;46.934;8.276;2023-02-22T12:17:14;96155.72;;;18.52;40.09
57232;BME280;43488;46.934;8.276;2023-02-22T12:19:50;96146.97;;;18.87;38.63
57232;BME280;43488;46.934;8.276;2023-02-22T12:22:32;96147.97;;;18.35;39.73
57232;BME280;43488;46.934;8.276;2023-02-22T12:27:49;96147.78;;;18.77;37.96
57232;BME280;43488;46.934;8.276;2023-02-22T12:30:33;96148.53;;;18.52;39.33
57232;BME280;43488;46.934;8.276;2023-02-22T12:33:10;96153.38;;;18.81;39.16
57232;BME280;43488;46.934;8.276;2023-02-22T12:35:48;96156.50;;;18.11;39.56
57232;BME280;43488;46.934;8.276;2023-02-22T12:38:34;96151.19;;;17.54;42.02
57232;BME280;43488;46.934;8.276;2023-02-22T12:41:35;96153.34;;;17.62;41.55
57232;BME280;43488;46.934;8.276;2023-02-22T12:44:32;96155.91;;;17.94;41.47
57232;BME280;43488;46.934;8.276;2023-02-22T12:47:01;96147.63;;;17.85;41.62
57232;BME280;43488;46.934;8.276;2023-02-22T12:55:28;96147.19;;;18.29;41.30
57232;BME280;43488;46.934;8.276;2023-02-22T12:58:29;96140.53;;;18.62;40.94
57232;BME280;43488;46.934;8.276;2023-02-22T13:01:21;96143.25;;;18.93;39.22
57232;BME280;43488;46.934;8.276;2023-02-22T13:03:53;96141.88;;;18.90;39.59
57232;BME280;43488;46.934;8.276;2023-02-22T13:15:36;96139.06;;;19.67;37.87
57232;BME280;43488;46.934;8.276;2023-02-22T13:24:10;96139.16;;;21.37;34.80
57232;BME280;43488;46.934;8.276;2023-02-22T13:26:59;96133.47;;;22.81;32.02
57232;BME280;43488;46.934;8.276;2023-02-22T13:29:38;96130.50;;;23.15;32.17
57232;BME280;43488;46.934;8.276;2023-02-22T13:38:17;96125.41;;;25.44;26.88
57232;BME280;43488;46.934;8.276;2023-02-22T13:41:18;96129.69;;;24.10;29.53
57232;BME280;43488;46.934;8.276;2023-02-22T13:47:10;96118.75;;;24.43;29.53
57232;BME280;43488;46.934;8.276;2023-02-22T13:52:37;96116.25;;;25.22;28.18
57232;BME280;43488;46.934;8.276;2023-02-22T13:55:18;96120.16;;;25.08;29.02
57232;BME280;43488;46.934;8.276;2023-02-22T13:57:49;96114.66;;;25.52;27.16
57232;BME280;43488;46.934;8.276;2023-02-22T14:00:37;96116.34;;;25.09;28.73
57232;BME280;43488;46.934;8.276;2023-02-22T14:13:17;96113.41;;;23.38;30.99
57232;BME280;43488;46.934;8.276;2023-02-22T14:18:41;96117.06;;;21.50;33.97
57232;BME280;43488;46.934;8.276;2023-02-22T14:21:14;96114.59;;;20.77;35.70
57232;BME280;43488;46.934;8.276;2023-02-22T14:23:51;96105.34;;;20.20;36.22
57232;BME280;43488;46.934;8.276;2023-02-22T14:26:37;96111.84;;;19.54;38.32
57232;BME280;43488;46.934;8.276;2023-02-22T14:37:12;96121.59;;;18.13;41.46
57232;BME280;43488;46.934;8.276;2023-02-22T14:43:08;96123.88;;;17.74;41.66
57232;BME280;43488;46.934;8.276;2023-02-22T14:45:59;96128.06;;;17.07;43.01
57232;BME280;43488;46.934;8.276;2023-02-22T14:48:38;96131.88;;;16.47;44.76
57232;BME280;43488;46.934;8.276;2023-02-22T14:51:40;96129.75;;;16.17;45.83
57232;BME280;43488;46.934;8.276;2023-02-22T14:54:28;96134.69;;;16.08;45.94
57232;BME280;43488;46.934;8.276;2023-02-22T14:57:25;96123.59;;;16.11;46.72
57232;BME280;43488;46.934;8.276;2023-02-22T15:00:17;96127.34;;;16.15;46.90
57232;BME280;43488;46.934;8.276;2023-02-22T15:02:58;96129.69;;;15.85;46.72
57232;BME280;43488;46.934;8.276;2023-02-22T15:05:35;96129.03;;;15.73;47.75
57232;BME280;43488;46.934;8.276;2023-02-22T15:08:07;96131.53;;;15.41;48.83
57232;BME280;43488;46.934;8.276;2023-02-22T15:10:42;96127.47;;;15.33;49.64
57232;BME280;43488;46.934;8.276;2023-02-22T15:13:24;96131.03;;;15.22;49.98
57232;BME280;43488;46.934;8.276;2023-02-22T15:16:01;96130.41;;;15.15;49.52
57232;BME280;43488;46.934;8.276;2023-02-22T15:18:38;96133.88;;;15.15;50.00
57232;BME280;43488;46.934;8.276;2023-02-22T15:21:13;96129.97;;;15.01;50.52
57232;BME280;43488;46.934;8.276;2023-02-22T15:24:00;96134.53;;;15.05;50.08
57232;BME280;43488;46.934;8.276;2023-02-22T15:26:40;96125.50;;;14.85;50.96
57232;BME280;43488;46.934;8.276;2023-02-22T15:29:25;96135.78;;;14.64;51.52
57232;BME280;43488;46.934;8.276;2023-02-22T15:31:54;96139.56;;;14.51;52.39
57232;BME280;43488;46.934;8.276;2023-02-22T15:34:32;96140.28;;;14.64;51.66
57232;BME280;43488;46.934;8.276;2023-02-22T15:37:21;96144.03;;;14.51;52.53
57232;BME280;43488;46.934;8.276;2023-02-22T15:39:52;96147.00;;;14.38;53.47
57232;BME280;43488;46.934;8.276;2023-02-22T15:42:26;96144.69;;;14.13;54.13
57232;BME280;43488;46.934;8.276;2023-02-22T15:44:56;96149.56;;;14.04;54.59
57232;BME280;43488;46.934;8.276;2023-02-22T15:47:28;96153.97;;;13.99;55.16